Time;durP1;ratioP1;P1;durP2;ratioP2;P2;SDS_P1;SDS_P2;PMS_P1;PMS_P2;Temp;Humidity;BMP_temperature;BMP_pressure;BME280_temperature;BME280_humidity;BME280_pressure;Samples;Min_cycle;Max_cycle;Signal;HPM_P1;HPM_P2
2023/07/30 00:01:54;;;;;;;2.75;2.10;;;;;;;21.77;42.89;93729.72;5045978;28;20040;-76
2023/07/30 00:04:20;;;;;;;2.55;1.90;;;;;;;21.76;42.82;93738.22;5045153;28;20604;-77
2023/07/30 00:06:46;;;;;;;2.03;1.73;;;;;;;21.76;42.84;93743.63;5043418;28;20043;-77
2023/07/30 00:09:11;;;;;;;4.95;2.10;;;;;;;21.72;42.73;93732.03;5044948;28;20432;-77
2023/07/30 00:11:37;;;;;;;4.32;2.10;;;;;;;21.70;42.68;93728.94;5042814;28;20045;-76
2023/07/30 00:14:02;;;;;;;2.45;2.00;;;;;;;21.71;42.64;93736.66;5046390;28;20044;-76
2023/07/30 00:16:28;;;;;;;2.45;1.90;;;;;;;21.66;42.90;93730.84;5043622;28;20044;-75
2023/07/30 00:18:53;;;;;;;4.15;2.05;;;;;;;21.63;42.80;93729.69;5046855;28;20039;-76
2023/07/30 00:21:18;;;;;;;4.72;1.90;;;;;;;21.52;42.85;93730.81;5062353;28;20021;-76
2023/07/30 00:23:44;;;;;;;3.20;2.42;;;;;;;21.55;43.41;93738.19;5049414;28;20050;-76
2023/07/30 00:26:09;;;;;;;3.03;2.47;;;;;;;21.50;43.00;93736.63;5049069;28;20042;-77
2023/07/30 00:28:34;;;;;;;3.92;2.30;;;;;;;21.43;42.88;93729.25;5048674;28;20506;-76
2023/07/30 00:31:00;;;;;;;5.38;2.20;;;;;;;21.41;42.77;93722.69;5051729;28;20452;-77
2023/07/30 00:33:25;;;;;;;1.95;1.63;;;;;;;21.34;42.88;93706.44;5070254;28;20028;-77
2023/07/30 00:35:52;;;;;;;2.08;1.88;;;;;;;21.47;42.96;93721.13;5073222;28;20036;-77
2023/07/30 00:38:18;;;;;;;1.80;1.58;;;;;;;21.49;42.50;93718.06;5066162;28;20043;-75
2023/07/30 00:40:44;;;;;;;2.15;1.67;;;;;;;21.45;42.42;93705.31;5067690;28;20032;-76
2023/07/30 00:43:10;;;;;;;3.03;2.30;;;;;;;21.38;42.58;93707.97;5066876;28;20097;-77
2023/07/30 00:45:37;;;;;;;3.20;1.75;;;;;;;21.41;42.77;93720.72;5070043;28;20020;-76
2023/07/30 00:48:03;;;;;;;1.92;1.75;;;;;;;21.31;42.97;93707.22;5064702;28;20028;-76
2023/07/30 00:50:28;;;;;;;3.83;1.85;;;;;;;21.28;43.03;93719.56;5067938;28;20094;-75
2023/07/30 00:52:55;;;;;;;1.83;1.63;;;;;;;21.28;42.76;93729.59;5065628;28;20585;-76
2023/07/30 00:55:20;;;;;;;2.63;1.92;;;;;;;21.15;43.23;93723.78;5070718;28;20043;-78
2023/07/30 00:57:46;;;;;;;2.38;2.10;;;;;;;21.14;42.95;93724.94;5067551;28;20031;-77
2023/07/30 01:00:12;;;;;;;2.10;1.88;;;;;;;20.95;43.26;93717.13;5070107;28;20028;-76
2023/07/30 01:02:37;;;;;;;2.75;2.25;;;;;;;20.85;43.40;93715.13;5065691;28;20488;-77
2023/07/30 01:05:03;;;;;;;2.97;2.10;;;;;;;20.83;44.00;93725.53;5067835;28;20036;-78
2023/07/30 01:07:30;;;;;;;4.57;2.00;;;;;;;20.83;43.91;93722.84;5066504;28;20508;-78
2023/07/30 01:09:56;;;;;;;4.10;1.73;;;;;;;20.84;43.60;93716.28;5069653;28;20072;-76
2023/07/30 01:12:22;;;;;;;3.00;1.90;;;;;;;20.89;43.43;93715.94;5067804;28;20550;-78
2023/07/30 01:14:48;;;;;;;2.45;1.83;;;;;;;20.96;43.61;93721.41;5067082;28;20077;-77
2023/07/30 01:17:13;;;;;;;2.83;2.25;;;;;;;20.84;43.85;93705.47;5062871;28;20062;-76
2023/07/30 01:19:39;;;;;;;2.67;2.05;;;;;;;20.94;43.77;93734.50;5067635;28;20558;-78
2023/07/30 01:22:04;;;;;;;2.25;2.05;;;;;;;20.91;43.89;93727.94;5068186;28;20044;-76
2023/07/30 01:24:30;;;;;;;1.77;1.63;;;;;;;20.86;44.11;93716.69;5065405;28;20031;-77
2023/07/30 01:27:05;;;;;;;3.58;1.70;;;;;;;20.92;43.81;93713.25;5074345;28;20082;-77
2023/07/30 01:29:43;;;;;;;5.18;2.13;;;;;;;20.99;43.84;93720.63;5074934;28;20036;-76
2023/07/30 01:32:11;;;;;;;2.58;2.05;;;;;;;20.80;44.06;93699.28;5064511;28;20036;-77
2023/07/30 01:34:39;;;;;;;2.55;2.35;;;;;;;20.96;43.88;93721.41;5066077;28;20029;-76
2023/07/30 01:37:11;;;;;;;2.70;1.80;;;;;;;20.86;44.42;93724.78;5081544;28;20035;-77
2023/07/30 01:39:39;;;;;;;2.20;1.92;;;;;;;20.81;44.58;93727.84;5067439;28;20608;-78
2023/07/30 01:42:04;;;;;;;2.90;1.90;;;;;;;20.77;44.75;93732.47;5067491;28;20040;-77
2023/07/30 01:44:30;;;;;;;2.33;2.08;;;;;;;20.71;44.77;93734.00;5066902;28;20520;-75
2023/07/30 01:46:55;;;;;;;3.83;2.10;;;;;;;20.69;45.18;93728.94;5067150;28;20035;-76
2023/07/30 01:49:20;;;;;;;4.25;2.20;;;;;;;20.68;45.13;93729.34;5066649;28;20744;-76
2023/07/30 01:51:46;;;;;;;3.58;1.95;;;;;;;20.58;45.37;93715.38;5067277;28;20454;-78
2023/07/30 01:54:11;;;;;;;2.60;2.33;;;;;;;20.44;45.39;93698.31;5072315;28;20031;-76
2023/07/30 01:56:37;;;;;;;2.88;2.00;;;;;;;20.49;45.40;93706.84;5067857;28;20119;-75
2023/07/30 01:59:02;;;;;;;2.88;2.50;;;;;;;20.64;45.71;93740.13;5064798;28;20487;-75
2023/07/30 02:01:27;;;;;;;3.80;2.20;;;;;;;20.63;45.96;93743.22;5068628;28;20036;-77
2023/07/30 02:03:53;;;;;;;5.25;2.97;;;;;;;20.59;45.91;93730.44;5067232;28;20035;-76
2023/07/30 02:06:18;;;;;;;5.43;2.35;;;;;;;20.57;46.16;93735.47;5074670;28;20063;-76
2023/07/30 02:08:43;;;;;;;4.63;2.47;;;;;;;20.58;46.05;93742.41;5051254;28;20032;-75
2023/07/30 02:11:09;;;;;;;3.97;3.67;;;;;;;20.52;46.17;93735.06;5047405;28;20036;-77
2023/07/30 02:13:34;;;;;;;2.65;2.42;;;;;;;20.50;46.01;93729.25;5046467;28;20045;-76
2023/07/30 02:15:59;;;;;;;4.65;2.38;;;;;;;20.47;46.30;93733.47;5044470;28;20033;-77
2023/07/30 02:18:25;;;;;;;2.70;2.30;;;;;;;20.48;46.74;93735.00;5052003;28;20036;-77
2023/07/30 02:20:50;;;;;;;4.97;2.63;;;;;;;20.43;46.50;93730.00;5046410;28;20067;-75
2023/07/30 02:23:16;;;;;;;5.05;2.33;;;;;;;20.53;46.50;93745.47;5047093;28;20075;-74
2023/07/30 02:25:42;;;;;;;3.33;2.10;;;;;;;20.50;46.06;93729.25;5044929;28;20432;-77
2023/07/30 02:28:07;;;;;;;3.78;2.42;;;;;;;20.60;46.06;93742.03;5043441;28;20040;-76
2023/07/30 02:30:33;;;;;;;3.00;2.70;;;;;;;20.56;46.23;93746.66;5052183;28;20149;-76
2023/07/30 02:32:59;;;;;;;4.88;2.20;;;;;;;20.55;46.01;93737.75;5046093;28;20045;-75
2023/07/30 02:35:24;;;;;;;4.18;2.47;;;;;;;20.50;46.30;93740.81;5042811;28;20572;-76
2023/07/30 02:37:49;;;;;;;3.28;2.63;;;;;;;20.49;46.07;93738.50;5046409;28;20090;-76
2023/07/30 02:40:15;;;;;;;5.78;2.67;;;;;;;20.40;46.27;93741.53;5046695;28;20565;-77
2023/07/30 02:42:40;;;;;;;2.38;1.98;;;;;;;20.50;46.73;93750.84;5047540;28;20025;-76
2023/07/30 02:45:06;;;;;;;4.85;2.30;;;;;;;20.46;46.22;93740.03;5047808;28;20371;-77
2023/07/30 02:47:31;;;;;;;8.25;3.55;;;;;;;20.43;46.00;93740.78;5047775;28;20530;-76
2023/07/30 02:49:57;;;;;;;3.88;2.47;;;;;;;20.31;45.83;93721.41;5042654;28;20171;-76
2023/07/30 02:52:22;;;;;;;3.20;2.20;;;;;;;20.46;45.71;93744.66;5046721;28;20755;-75
2023/07/30 02:54:47;;;;;;;2.92;2.63;;;;;;;20.33;45.60;93736.09;5043703;28;20032;-76
2023/07/30 02:57:13;;;;;;;2.33;2.13;;;;;;;20.42;46.26;93739.25;5046411;28;20028;-76
2023/07/30 02:59:39;;;;;;;2.80;2.45;;;;;;;20.41;46.08;93745.78;5044078;28;20044;-76
2023/07/30 03:02:05;;;;;;;3.28;1.88;;;;;;;20.32;46.25;93748.03;5077650;28;20377;-78
2023/07/30 03:04:31;;;;;;;3.15;2.47;;;;;;;20.25;46.19;93734.47;5042132;28;20044;-77
2023/07/30 03:06:56;;;;;;;9.65;1.92;;;;;;;20.35;45.80;93755.38;5052601;28;20457;-75
2023/07/30 03:09:22;;;;;;;3.28;2.13;;;;;;;20.37;46.03;93755.03;5043952;28;20512;-76
2023/07/30 03:11:47;;;;;;;3.70;2.40;;;;;;;20.21;45.93;93743.72;5052335;28;20113;-76
2023/07/30 03:14:13;;;;;;;2.95;2.50;;;;;;;20.14;45.96;93728.97;5042348;28;20389;-77
2023/07/30 03:16:38;;;;;;;3.65;2.22;;;;;;;20.21;46.10;93746.41;5046625;28;20064;-76
2023/07/30 03:19:03;;;;;;;2.85;2.25;;;;;;;20.15;45.64;93752.13;5046435;28;20025;-75
2023/07/30 03:21:29;;;;;;;4.82;2.00;;;;;;;20.05;46.02;93735.84;5045468;28;20020;-78
2023/07/30 03:23:54;;;;;;;1.98;1.77;;;;;;;20.19;45.95;93746.78;5044480;28;20529;-76
2023/07/30 03:26:20;;;;;;;5.75;1.98;;;;;;;20.17;45.98;93739.06;5047222;28;20028;-75
2023/07/30 03:28:45;;;;;;;3.88;1.95;;;;;;;20.22;46.02;93746.03;5050746;28;20731;-77
2023/07/30 03:31:11;;;;;;;2.80;2.20;;;;;;;20.01;46.14;93724.25;5045911;28;20029;-77
2023/07/30 03:33:39;;;;;;;3.20;2.17;;;;;;;20.07;46.18;93747.06;5042853;28;20024;-79
2023/07/30 03:36:04;;;;;;;3.08;1.90;;;;;;;19.99;46.71;93748.94;5045586;28;20029;-76
2023/07/30 03:38:30;;;;;;;3.50;2.42;;;;;;;19.90;46.83;93740.38;5041688;28;20399;-78
2023/07/30 03:40:55;;;;;;;7.40;2.13;;;;;;;19.83;46.98;93742.25;5046345;28;20035;-77
2023/07/30 03:43:21;;;;;;;3.97;2.20;;;;;;;19.86;46.99;93744.19;5043677;28;20064;-75
2023/07/30 03:45:46;;;;;;;3.58;2.20;;;;;;;19.77;47.09;93730.22;5046588;28;20145;-77
2023/07/30 03:48:11;;;;;;;2.13;1.83;;;;;;;19.95;47.10;93758.13;5048016;28;20074;-76
2023/07/30 03:50:37;;;;;;;4.05;2.45;;;;;;;19.96;47.62;93748.91;5050901;28;20059;-76
2023/07/30 03:53:02;;;;;;;2.75;1.90;;;;;;;19.92;47.60;93750.78;5045299;28;20392;-76
2023/07/30 03:55:28;;;;;;;4.30;2.15;;;;;;;19.94;47.40;93751.22;5050309;28;20033;-76
2023/07/30 03:57:53;;;;;;;4.25;2.83;;;;;;;19.99;47.22;93753.56;5047537;28;20032;-76
2023/07/30 04:00:19;;;;;;;5.85;2.53;;;;;;;19.99;47.20;93753.56;5051574;28;20016;-76
2023/07/30 04:02:44;;;;;;;4.03;2.55;;;;;;;20.02;47.37;93755.50;5048219;28;20060;-77
2023/07/30 04:05:10;;;;;;;3.97;1.98;;;;;;;20.13;47.40;93772.56;5047701;28;20090;-78
2023/07/30 04:07:35;;;;;;;3.72;2.55;;;;;;;20.10;47.74;93770.59;5048639;28;20473;-76
2023/07/30 04:10:00;;;;;;;3.20;2.60;;;;;;;20.13;48.30;93765.25;5049630;28;20182;-76
2023/07/30 04:12:26;;;;;;;5.57;2.70;;;;;;;20.11;47.85;93750.56;5050043;28;20036;-77
2023/07/30 04:14:51;;;;;;;6.75;2.80;;;;;;;20.16;48.08;93771.81;5046724;28;20033;-77
2023/07/30 04:17:16;;;;;;;10.38;3.10;;;;;;;20.17;48.42;93763.38;5051556;28;20040;-76
2023/07/30 04:19:42;;;;;;;3.83;3.15;;;;;;;20.15;49.45;93759.44;5044783;28;20128;-78
2023/07/30 04:22:07;;;;;;;3.65;2.50;;;;;;;20.31;49.40;93770.78;5048698;28;20501;-77
2023/07/30 04:24:33;;;;;;;6.72;2.72;;;;;;;20.29;49.81;93764.22;5048945;28;20508;-76
2023/07/30 04:27:00;;;;;;;6.15;3.47;;;;;;;20.40;49.29;93778.56;5048145;28;20029;-76
2023/07/30 04:29:26;;;;;;;5.22;3.90;;;;;;;20.48;48.79;93780.94;5046846;28;20041;-77
2023/07/30 04:31:51;;;;;;;7.05;3.33;;;;;;;20.38;48.48;93751.94;5052775;28;20033;-78
2023/07/30 04:34:16;;;;;;;4.57;2.90;;;;;;;20.49;48.29;93760.88;5047371;28;20471;-76
2023/07/30 04:36:42;;;;;;;8.30;3.58;;;;;;;20.55;48.09;93758.59;5047273;28;20156;-76
2023/07/30 04:39:07;;;;;;;8.50;2.90;;;;;;;20.65;47.65;93760.59;5048300;28;20037;-76
2023/07/30 04:41:32;;;;;;;6.50;3.35;;;;;;;20.75;47.42;93767.22;5060777;28;20064;-78
2023/07/30 04:43:58;;;;;;;3.42;3.00;;;;;;;20.78;47.42;93774.53;5068341;28;20036;-76
2023/07/30 04:46:23;;;;;;;6.63;3.67;;;;;;;20.80;47.32;93769.56;5068314;28;20055;-77
2023/07/30 04:48:48;;;;;;;4.95;3.65;;;;;;;20.83;48.17;93774.97;5065894;28;20028;-78
2023/07/30 04:51:14;;;;;;;9.50;4.43;;;;;;;20.79;48.14;93773.41;5068348;28;20039;-76
2023/07/30 04:53:39;;;;;;;4.82;4.03;;;;;;;20.89;47.21;93772.72;5074110;28;20038;-75
2023/07/30 04:56:04;;;;;;;4.60;3.92;;;;;;;21.02;47.03;93782.06;5066376;28;20260;-77
2023/07/30 04:58:30;;;;;;;5.30;4.00;;;;;;;21.06;46.68;93782.06;5068685;28;20032;-78
2023/07/30 05:00:55;;;;;;;3.95;3.65;;;;;;;21.05;47.13;93781.28;5071480;28;20386;-78
2023/07/30 05:03:21;;;;;;;7.43;3.92;;;;;;;21.00;46.52;93762.72;5067580;28;20259;-77
2023/07/30 05:05:46;;;;;;;5.88;3.58;;;;;;;21.19;46.61;93785.97;5067841;28;20032;-78
2023/07/30 05:08:11;;;;;;;6.38;4.65;;;;;;;21.16;46.33;93775.94;5067548;28;20037;-76
2023/07/30 05:10:38;;;;;;;5.25;4.75;;;;;;;21.19;47.26;93775.16;5069656;28;20048;-76
2023/07/30 05:13:03;;;;;;;5.90;3.97;;;;;;;21.25;47.48;93774.41;5065570;28;20526;-76
2023/07/30 05:15:29;;;;;;;8.02;4.03;;;;;;;21.33;47.31;93777.91;5065803;28;20047;-77
2023/07/30 05:17:54;;;;;;;6.40;3.80;;;;;;;21.40;47.59;93776.03;5065497;28;20406;-76
2023/07/30 05:20:20;;;;;;;5.85;4.18;;;;;;;21.57;47.38;93784.56;5068779;28;20028;-78
2023/07/30 05:22:45;;;;;;;5.57;4.28;;;;;;;21.40;47.55;93765.19;5066096;28;20040;-76
2023/07/30 05:25:10;;;;;;;6.20;3.80;;;;;;;21.65;46.95;93788.88;5068270;28;20032;-77
2023/07/30 05:27:36;;;;;;;5.28;4.55;;;;;;;21.76;46.42;93782.31;5069078;28;20073;-76
2023/07/30 05:30:01;;;;;;;5.35;4.85;;;;;;;21.83;46.28;93768.00;5063847;28;20044;-79
2023/07/30 05:32:27;;;;;;;6.07;3.80;;;;;;;21.94;46.82;93776.16;5068492;28;20607;-78
2023/07/30 05:34:52;;;;;;;7.93;4.97;;;;;;;22.00;47.15;93774.63;5067733;28;20452;-77
2023/07/30 05:37:18;;;;;;;8.32;5.18;;;;;;;22.07;46.68;93775.38;5067417;28;20499;-78
2023/07/30 05:39:43;;;;;;;6.85;4.70;;;;;;;22.19;46.20;93777.69;5065455;28;20039;-77
2023/07/30 05:42:08;;;;;;;7.07;4.32;;;;;;;22.09;46.67;93783.13;5066898;28;20033;-77
2023/07/30 05:44:34;;;;;;;7.25;3.83;;;;;;;22.24;45.99;93782.75;5067512;28;20039;-76
2023/07/30 05:46:59;;;;;;;7.65;4.63;;;;;;;22.21;45.37;93767.28;5064679;28;20036;-77
2023/07/30 05:49:25;;;;;;;6.70;4.30;;;;;;;22.24;45.35;93765.75;5069073;28;20029;-76
2023/07/30 05:51:50;;;;;;;6.40;4.35;;;;;;;22.44;45.18;93776.97;5067192;28;20093;-78
2023/07/30 05:54:16;;;;;;;6.25;3.85;;;;;;;22.45;44.75;93778.47;5065550;28;20449;-76
2023/07/30 05:56:42;;;;;;;6.70;4.47;;;;;;;22.42;45.42;93776.56;5066413;28;20034;-78
2023/07/30 05:59:07;;;;;;;8.75;4.78;;;;;;;22.57;45.52;93780.81;5068600;28;20100;-76
2023/07/30 06:01:33;;;;;;;5.43;4.38;;;;;;;22.61;45.56;93781.56;5068832;28;20387;-76
2023/07/30 06:03:58;;;;;;;6.68;4.50;;;;;;;22.74;45.05;93788.13;5067339;28;20024;-77
2023/07/30 06:06:27;;;;;;;5.78;4.25;;;;;;;22.71;45.21;93780.78;5065425;28;20031;-75
2023/07/30 06:08:56;;;;;;;5.93;4.60;;;;;;;22.87;44.28;93794.72;5066670;28;20039;-77
2023/07/30 06:11:22;;;;;;;6.70;4.15;;;;;;;22.97;44.45;93796.63;5060842;28;20095;-76
2023/07/30 06:13:47;;;;;;;5.07;3.97;;;;;;;23.03;43.92;93789.63;5066370;28;20036;-75
2023/07/30 06:16:13;;;;;;;4.95;3.97;;;;;;;23.08;43.90;93786.50;5064993;28;20045;-76
2023/07/30 06:18:39;;;;;;;4.78;3.92;;;;;;;23.04;43.72;93776.84;5066455;28;20032;-79
2023/07/30 06:21:04;;;;;;;8.35;3.80;;;;;;;23.20;43.56;93789.97;5064333;28;20040;-77
2023/07/30 06:23:30;;;;;;;4.05;3.63;;;;;;;23.08;42.51;93777.59;5051152;28;20072;-76
2023/07/30 06:25:55;;;;;;;6.97;4.03;;;;;;;23.14;42.04;93786.88;5044396;28;20033;-77
2023/07/30 06:28:20;;;;;;;4.78;3.60;;;;;;;23.17;43.10;93792.28;5045346;28;20415;-78
2023/07/30 06:30:46;;;;;;;3.55;3.22;;;;;;;23.19;42.82;93782.97;5043237;28;20346;-78
2023/07/30 06:33:11;;;;;;;4.97;3.22;;;;;;;23.10;42.93;93780.69;5065888;28;20504;-79
2023/07/30 06:35:37;;;;;;;4.47;3.35;;;;;;;23.24;42.74;93779.84;5048724;28;20041;-77
2023/07/30 06:38:02;;;;;;;5.15;3.30;;;;;;;23.17;42.98;93764.41;5047362;28;20229;-79
2023/07/30 06:40:28;;;;;;;6.85;3.53;;;;;;;23.31;42.78;93766.28;5042757;28;20028;-77
2023/07/30 06:42:53;;;;;;;6.55;4.15;;;;;;;23.34;41.41;93766.25;5044508;28;20035;-78
2023/07/30 06:45:18;;;;;;;4.25;3.78;;;;;;;23.50;42.12;93771.25;5060064;28;20029;-79
2023/07/30 06:47:44;;;;;;;4.95;3.20;;;;;;;23.46;42.36;93746.03;5030633;28;20052;-77
2023/07/30 06:50:09;;;;;;;6.35;4.25;;;;;;;23.67;41.49;93764.94;5038968;28;20047;-79
2023/07/30 06:52:35;;;;;;;8.35;3.60;;;;;;;23.70;42.31;93764.16;5044347;28;21084;-78
2023/07/30 06:55:02;;;;;;;3.50;3.20;;;;;;;23.77;40.95;93758.66;5028734;28;20335;-78
2023/07/30 06:57:29;;;;;;;4.85;3.13;;;;;;;23.81;41.99;93767.56;5031594;28;20051;-77
2023/07/30 06:59:55;;;;;;;6.93;3.17;;;;;;;23.77;41.60;93734.22;5029968;28;20066;-77
2023/07/30 07:02:20;;;;;;;7.07;3.42;;;;;;;23.95;42.25;93759.31;5031842;28;20738;-77
2023/07/30 07:04:45;;;;;;;4.38;3.22;;;;;;;23.97;42.33;93745.34;5030677;28;20876;-78
2023/07/30 07:07:11;;;;;;;4.40;4.00;;;;;;;24.02;41.24;93751.13;5038339;28;20558;-77
2023/07/30 07:09:36;;;;;;;8.52;3.75;;;;;;;24.02;41.02;93739.47;5055509;28;20083;-77
2023/07/30 07:12:03;;;;;;;7.50;4.25;;;;;;;24.20;40.49;93755.69;5061448;28;20079;-78
2023/07/30 07:14:28;;;;;;;3.92;3.45;;;;;;;24.24;40.89;93749.06;5039460;28;20032;-76
2023/07/30 07:16:56;;;;;;;5.18;3.30;;;;;;;24.27;41.21;93747.47;5034445;28;20132;-76
2023/07/30 07:19:21;;;;;;;7.10;3.50;;;;;;;24.24;41.38;93737.41;5034126;28;20356;-77
2023/07/30 07:21:47;;;;;;;4.90;3.53;;;;;;;24.36;40.66;93739.63;5032906;28;20039;-79
2023/07/30 07:24:12;;;;;;;3.33;3.03;;;;;;;24.37;41.33;93736.50;5042381;28;20025;-78
2023/07/30 07:26:37;;;;;;;5.47;3.58;;;;;;;24.48;40.75;93741.84;5040474;28;20040;-78
2023/07/30 07:29:03;;;;;;;5.32;3.83;;;;;;;24.50;40.20;93734.03;5050404;28;20490;-77
2023/07/30 07:31:29;;;;;;;9.18;3.92;;;;;;;24.60;41.05;93732.38;5055281;28;20047;-78
2023/07/30 07:33:55;;;;;;;6.43;3.22;;;;;;;24.63;40.62;93731.59;5057275;28;20176;-78
2023/07/30 07:36:21;;;;;;;7.68;3.30;;;;;;;24.64;39.94;93722.25;5043183;28;20056;-77
2023/07/30 07:38:46;;;;;;;9.48;3.88;;;;;;;24.76;39.54;93730.72;5053299;28;22442;-78
2023/07/30 07:41:18;;;;;;;4.50;2.70;;;;;;;24.87;39.37;93724.38;5060132;28;20049;-76
2023/07/30 07:43:45;;;;;;;5.40;3.17;;;;;;;24.95;39.68;93712.22;5059898;28;20141;-78
2023/07/30 07:46:13;;;;;;;4.22;3.55;;;;;;;24.83;38.53;93697.97;5052058;28;20766;-78
2023/07/30 07:48:43;;;;;;;4.30;3.67;;;;;;;25.02;39.26;93720.31;5058854;28;20056;-77
2023/07/30 07:51:10;;;;;;;5.63;3.25;;;;;;;25.08;39.56;93724.13;5054330;28;20084;-77
2023/07/30 07:53:37;;;;;;;6.05;3.30;;;;;;;25.15;39.15;93724.03;5058692;28;20581;-78
2023/07/30 07:56:03;;;;;;;5.10;3.72;;;;;;;25.06;39.06;93716.38;5053761;28;20041;-77
2023/07/30 07:58:29;;;;;;;5.07;2.97;;;;;;;25.18;40.13;93726.72;5056721;28;20563;-77
2023/07/30 08:00:55;;;;;;;6.88;3.05;;;;;;;25.24;39.39;93721.59;5058814;28;20052;-79
2023/07/30 08:03:32;;;;;;;5.68;3.25;;;;;;;25.21;38.68;93716.97;5058786;28;20028;-77
2023/07/30 08:05:57;;;;;;;4.00;2.90;;;;;;;25.16;37.85;93714.69;5057281;28;20458;-79
2023/07/30 08:08:25;;;;;;;4.88;3.10;;;;;;;25.20;36.88;93708.03;5068751;28;20089;-77
2023/07/30 08:10:50;;;;;;;8.50;3.50;;;;;;;25.27;37.96;93712.63;5076333;27;20040;-78
2023/07/30 08:13:15;;;;;;;6.88;2.65;;;;;;;25.13;37.32;93689.06;5059612;28;20041;-78
2023/07/30 08:15:41;;;;;;;6.28;3.20;;;;;;;25.35;37.75;93708.66;5060335;28;20028;-77
2023/07/30 08:18:07;;;;;;;3.20;2.80;;;;;;;25.34;37.54;93712.53;5059582;28;20036;-77
2023/07/30 08:20:32;;;;;;;3.30;2.80;;;;;;;25.35;36.49;93711.38;5059932;28;20036;-78
2023/07/30 08:22:57;;;;;;;4.25;2.70;;;;;;;25.31;36.76;93699.00;5056841;28;20453;-77
2023/07/30 08:25:23;;;;;;;3.35;2.65;;;;;;;25.35;37.24;93697.00;5059024;28;20133;-77
2023/07/30 08:27:48;;;;;;;5.88;2.80;;;;;;;25.43;36.40;93701.91;5059097;28;20094;-76
2023/07/30 08:30:14;;;;;;;4.53;2.60;;;;;;;25.44;36.45;93703.47;5057722;28;20244;-78
2023/07/30 08:32:41;;;;;;;2.63;2.40;;;;;;;25.44;36.10;93698.03;5059301;28;20514;-78
2023/07/30 08:35:09;;;;;;;2.28;2.08;;;;;;;25.54;36.02;93702.56;5060485;28;20311;-77
2023/07/30 08:37:34;;;;;;;7.53;3.40;;;;;;;25.65;35.57;93702.41;5060769;28;20040;-76
2023/07/30 08:40:01;;;;;;;4.13;2.83;;;;;;;25.54;35.40;93674.53;5058661;28;20034;-75
2023/07/30 08:42:26;;;;;;;7.72;2.63;;;;;;;25.56;36.10;93686.59;5059309;28;20313;-75
2023/07/30 08:44:52;;;;;;;3.08;2.50;;;;;;;25.61;36.06;93680.66;5062936;28;20493;-75
2023/07/30 08:47:17;;;;;;;4.55;2.97;;;;;;;25.62;34.69;93687.63;5063810;28;20036;-75
2023/07/30 08:49:43;;;;;;;4.30;3.05;;;;;;;25.59;34.11;93687.69;5065771;28;20037;-77
2023/07/30 08:52:09;;;;;;;3.85;2.70;;;;;;;25.50;34.24;93673.84;5058608;28;20042;-77
2023/07/30 08:54:37;;;;;;;4.13;2.70;;;;;;;25.39;34.57;93684.88;5067153;28;20374;-75
2023/07/30 08:57:03;;;;;;;3.30;2.88;;;;;;;25.28;35.15;93681.47;5069832;28;20394;-74
2023/07/30 08:59:33;;;;;;;5.35;3.33;;;;;;;25.34;34.90;93676.38;5069976;28;20032;-79
2023/07/30 09:02:01;;;;;;;8.35;2.88;;;;;;;25.22;34.40;93659.41;5066407;27;20051;-75
2023/07/30 09:04:29;;;;;;;3.03;2.72;;;;;;;25.45;34.37;93669.63;5067840;28;20044;-76
2023/07/30 09:06:55;;;;;;;4.88;2.90;;;;;;;25.50;34.67;93680.06;5068843;28;20820;-77
2023/07/30 09:09:21;;;;;;;4.30;2.63;;;;;;;25.58;34.75;93680.72;5065763;28;20024;-75
2023/07/30 09:11:55;;;;;;;4.70;2.80;;;;;;;25.52;33.95;93674.94;5064115;28;20343;-78
2023/07/30 09:14:21;;;;;;;3.53;3.10;;;;;;;25.60;34.12;93672.91;5060546;28;20493;-76
2023/07/30 09:16:47;;;;;;;4.43;2.88;;;;;;;25.64;34.51;93663.50;5059318;28;20043;-77
2023/07/30 09:19:17;;;;;;;4.30;2.95;;;;;;;25.66;33.82;93666.56;5058506;28;20676;-76
2023/07/30 09:21:43;;;;;;;3.55;2.50;;;;;;;25.71;32.80;93663.38;5060637;28;20024;-77
2023/07/30 09:24:09;;;;;;;4.95;2.75;;;;;;;25.75;32.87;93663.34;5061290;28;20114;-76
2023/07/30 09:26:45;;;;;;;4.13;2.50;;;;;;;25.84;32.65;93665.53;5061873;28;20387;-76
2023/07/30 09:29:11;;;;;;;4.55;2.90;;;;;;;25.95;33.24;93658.00;5058715;28;21075;-78
2023/07/30 09:31:47;;;;;;;4.75;3.15;;;;;;;25.96;31.48;93651.34;5060425;28;20471;-77
2023/07/30 09:34:18;;;;;;;5.90;3.47;;;;;;;26.07;33.03;93655.44;5061668;28;20093;-76
2023/07/30 09:36:45;;;;;;;5.03;3.03;;;;;;;26.18;32.88;93665.38;5061591;28;20025;-77
2023/07/30 09:39:26;;;;;;;4.03;3.10;;;;;;;26.14;34.12;93646.38;5057937;28;20454;-76
2023/07/30 09:41:58;;;;;;;4.15;2.58;;;;;;;26.09;32.63;93633.22;5059231;28;20345;-76
2023/07/30 09:44:24;;;;;;;5.45;3.35;;;;;;;26.09;32.87;93641.41;5059597;28;20169;-77
2023/07/30 09:46:50;;;;;;;5.43;3.20;;;;;;;26.12;33.68;93632.38;5059423;28;20138;-75
2023/07/30 09:49:16;;;;;;;4.32;3.15;;;;;;;26.21;33.50;93634.56;5062021;28;20060;-76
2023/07/30 09:51:41;;;;;;;3.58;2.80;;;;;;;26.24;32.66;93639.97;5057960;28;20063;-77
2023/07/30 09:54:11;;;;;;;3.38;3.08;;;;;;;26.25;32.14;93625.13;5061147;28;20170;-76
2023/07/30 09:56:39;;;;;;;10.10;4.30;;;;;;;26.31;32.65;93636.31;5065692;28;20577;-75
2023/07/30 09:59:05;;;;;;;5.10;2.78;;;;;;;26.39;32.71;93624.91;5069407;28;20545;-77
2023/07/30 10:01:32;;;;;;;6.45;3.47;;;;;;;26.45;31.82;93628.66;5065900;28;20401;-75
2023/07/30 10:03:58;;;;;;;4.38;3.13;;;;;;;26.48;31.67;93633.31;5068356;28;20908;-77
2023/07/30 10:06:27;;;;;;;2.40;2.20;;;;;;;26.43;32.16;93622.88;5059323;28;20016;-75
2023/07/30 10:08:54;;;;;;;5.20;3.15;;;;;;;26.45;31.29;93608.78;5064908;28;20121;-76
2023/07/30 10:11:20;;;;;;;3.90;3.00;;;;;;;26.42;31.93;93610.41;5058469;28;20520;-78
2023/07/30 10:13:46;;;;;;;3.78;2.95;;;;;;;26.45;32.18;93604.13;5046125;28;20048;-76
2023/07/30 10:16:12;;;;;;;4.53;3.67;;;;;;;26.53;31.81;93605.56;5046093;28;20341;-78
2023/07/30 10:18:42;;;;;;;4.32;2.75;;;;;;;26.67;32.20;93601.00;5036610;28;20154;-78
2023/07/30 10:21:09;;;;;;;4.82;3.92;;;;;;;26.74;31.93;93606.31;5063709;28;20047;-77
2023/07/30 10:23:35;;;;;;;4.20;3.17;;;;;;;26.63;31.47;93592.13;5049211;28;20761;-76
2023/07/30 10:26:09;;;;;;;4.80;3.10;;;;;;;26.72;31.49;93592.34;5044071;28;20028;-75
2023/07/30 10:28:43;;;;;;;4.40;3.60;;;;;;;26.90;30.74;93603.63;5041650;28;20047;-75
2023/07/30 10:31:09;;;;;;;4.50;3.88;;;;;;;26.88;34.28;93601.34;5046867;28;20163;-76
2023/07/30 10:33:50;;;;;;;4.65;3.13;;;;;;;26.92;32.15;93602.03;5066916;28;20544;-76
2023/07/30 10:36:32;;;;;;;3.90;3.22;;;;;;;26.92;31.77;93587.63;5068525;28;20047;-76
2023/07/30 10:38:58;;;;;;;3.40;2.78;;;;;;;26.93;30.45;93587.22;5063151;28;20067;-77
2023/07/30 10:41:24;;;;;;;5.50;3.55;;;;;;;26.93;31.29;93575.53;5050512;28;20480;-77
2023/07/30 10:43:50;;;;;;;3.92;3.05;;;;;;;26.92;31.08;93587.63;5040334;28;20045;-76
2023/07/30 10:46:18;;;;;;;4.75;3.17;;;;;;;26.97;31.54;93582.44;5046543;28;20478;-75
2023/07/30 10:48:47;;;;;;;3.65;3.30;;;;;;;26.92;30.69;93563.06;5069039;28;20478;-74
2023/07/30 10:51:15;;;;;;;5.32;3.38;;;;;;;27.06;30.87;93572.91;5064702;28;20134;-77
2023/07/30 10:53:48;;;;;;;4.18;3.30;;;;;;;27.11;31.33;93569.69;5064560;28;20051;-78
2023/07/30 10:56:16;;;;;;;5.30;2.90;;;;;;;27.18;31.40;93556.63;5053920;28;20068;-79
2023/07/30 10:58:42;;;;;;;6.18;3.15;;;;;;;27.16;30.19;93550.09;5041190;28;20045;-79
2023/07/30 11:01:09;;;;;;;6.28;3.40;;;;;;;27.20;31.85;93562.44;5042928;28;20095;-78
2023/07/30 11:03:36;;;;;;;4.57;3.25;;;;;;;27.27;31.20;93556.06;5039916;28;20514;-77
2023/07/30 11:06:02;;;;;;;5.25;3.78;;;;;;;27.16;30.45;93539.94;5042407;28;20589;-76
2023/07/30 11:08:36;;;;;;;4.03;3.25;;;;;;;27.24;30.78;93546.75;5041468;28;20537;-78
2023/07/30 11:11:02;;;;;;;4.17;3.60;;;;;;;27.22;30.24;93540.97;5041273;28;20498;-77
2023/07/30 11:13:28;;;;;;;3.95;3.38;;;;;;;27.19;29.29;93541.81;5051717;28;20048;-77
2023/07/30 11:15:53;;;;;;;4.05;3.15;;;;;;;27.22;31.11;93538.25;5064485;28;20139;-78
2023/07/30 11:18:19;;;;;;;3.92;3.05;;;;;;;27.26;30.46;93528.00;5044074;28;20044;-78
2023/07/30 11:20:45;;;;;;;3.78;3.47;;;;;;;27.36;32.37;93516.06;5042648;28;20494;-76
2023/07/30 11:23:38;;;;;;;5.65;3.38;;;;;;;27.53;30.79;93526.94;5041482;28;20148;-77
2023/07/30 11:26:06;;;;;;;4.13;3.50;;;;;;;27.57;31.06;93524.97;5041451;28;20044;-79
2023/07/30 11:28:32;;;;;;;3.75;3.42;;;;;;;27.70;29.80;93517.59;5041860;28;20049;-77
2023/07/30 11:31:00;;;;;;;3.92;3.42;;;;;;;27.70;29.77;93523.06;5044951;28;20036;-78